Terminal Aerodrome Forecast
Issued by NWS

Home | Current Version | Previous Version | Text Only | Print | Product List | Glossary On
Versions: 1 2 3 4 5 6 7 8 9 10 11 12 13 14 15 16 17 18
000
FTUS44 KBMX 222300
TAFMGM
TAF
KMGM 222333Z 2300/2324 13008KT 6SM BR VCSH OVC004
     FM230400 15005KT 1SM BR VCSH OVC003
      TEMPO 2308/2312 1/4SM FG VV001
     FM231600 16010KT P6SM OVC015
     FM231800 15012KT 6SM BR VCTS SCT007 BKN015CB=

USA.gov is the U.S. government's official web portal to all federal, state and local government web resources and services.